Nearby METAR Reports

 

KHEZ - Natchez/Hardy, Mississippi, USA
Distance from station: W 24mi, 38km
Updated: Wed, 13-Dec-2017 10:56pm CST
Clear
Clear
 Wind from SW
Wind: SW 7 mph , 11 km/h
Temperature: 48°F , 9°C
Wind Chill: 45°F , 7°C
Dew Point: 36°F , 2°C
Humidity: 62%
Barometer: 29.98 inHg , 1015.2 hPa
Clouds: Clear
Visibility: 10 miles , 16 km
2017/12/14 04:56 KHEZ 140456Z AUTO 22006KT 10SM CLR 09/02 A2998 RMK AO2 SLP157 T00890022 401561033
K1R7 - Brookhaven, Mississippi, USA
Distance from station: E 28mi, 46km
Updated: Wed, 21-Jun-2017 3:15pm CDT
NOT Current
Mostly cloudy
Mostly cloudy
 Wind from ENE
Wind: ENE 3 mph , 6 km/h
Temperature: 77°F , 25°C
Dew Point: 75°F , 24°C
Humidity: 94%
Barometer: 29.83 inHg , 1010.2 hPa
Clouds: Mostly cloudy
Visibility: 10 miles , 16 km
Cloud details: Mostly cloudy 500 ft
2017/06/21 20:15 K1R7 212015Z AUTO 06003KT 10SM BKN005 25/24 A2983 RMK AO2
 
KMCB - Mccomb, Mississippi, USA
Distance from station: SE 38mi, 61km
Updated: Wed, 13-Dec-2017 11:53pm CST
Clear
Clear
 Wind from calm
Wind: Calm
Temperature: 45°F , 7°C
Dew Point: 36°F , 2°C
Humidity: 71%
Barometer: 29.97 inHg , 1014.9 hPa
Clouds: Clear
Visibility: 10 miles , 16 km
2017/12/14 05:53 KMCB 140553Z AUTO 00000KT 10SM CLR 07/02 A2997 RMK AO2 SLP147 T00670022 10089 20056 401501022 58003
KTVR - Tallulah/Vicksbu, Louisiana, USA
Distance from station: N 53mi, 86km
Updated: Wed, 13-Dec-2017 11:53pm CST
Clear
Clear
 Wind from calm
Wind: Calm
Temperature: 37°F , 3°C
Dew Point: 30°F , -1°C
Humidity: 75%
Barometer: 29.96 inHg , 1014.6 hPa
Clouds: Clear
Visibility: 10 miles , 16 km
2017/12/14 05:53 KTVR 140553Z AUTO 00000KT 10SM CLR 03/M01 A2996 RMK AO2 SLP151 T00331006 10117 20033 401561044 50001
 
KJVW - Raymond, Mississippi, USA
Distance from station: NNE 57mi, 91km
Updated: Wed, 13-Dec-2017 11:55pm CST
Clear
Clear
 Wind from calm
Wind: Calm
Temperature: 41°F , 5°C
Dew Point: 30°F , -1°C
Humidity: 66%
Barometer: 29.95 inHg , 1014.2 hPa
Clouds: Clear
Visibility: 10 miles , 16 km
2017/12/14 05:55 KJVW 140555Z AUTO 00000KT 10SM CLR 05/M01 A2995 RMK AO2
KHKS - Jackson/Hawkins, Mississippi, USA
Distance from station: NE 65mi, 105km
Updated: Wed, 13-Dec-2017 11:53pm CST
Clear
Clear
 Wind from SW
Wind: SW 3 mph , 6 km/h
Temperature: 45°F , 7°C
Dew Point: 30°F , -1°C
Humidity: 57%
Barometer: 29.95 inHg , 1014.2 hPa
Clouds: Clear
Visibility: 10 miles , 16 km
2017/12/14 05:53 KHKS 140553Z AUTO 22003KT 10SM CLR 07/M01 A2995 RMK AO2 SLP137 T00721006 10111 20072 401611022 50004
 
KHZR - New Roads, Louisiana, USA
Distance from station: SSW 69mi, 112km
Updated: Wed, 13-Dec-2017 11:35pm CST
Clear
Clear
 Wind from calm
Wind: Calm
Temperature: 41°F , 5°C
Dew Point: 37°F , 3°C
Humidity: 87%
Barometer: 29.99 inHg , 1015.6 hPa
Clouds: Clear
Visibility: 10 miles , 16 km
2017/12/14 05:35 KHZR 140535Z AUTO 00000KT 10SM CLR 05/03 A2999 RMK AO2 T00530032
KJAN - Jackson, Mississippi, USA
Distance from station: NE 69mi, 112km
Updated: Wed, 13-Dec-2017 11:54pm CST
Clear
Clear
 Wind from S
Wind: S 5 mph , 7 km/h
Temperature: 45°F , 7°C
Wind Chill: 42°F , 6°C
Dew Point: 30°F , -1°C
Humidity: 57%
Barometer: 29.94 inHg , 1013.9 hPa
Clouds: Clear
Visibility: 10 miles , 16 km
2017/12/14 05:54 KJAN 140554Z AUTO 19004KT 10SM CLR 07/M01 A2994 RMK AO2 SLP138 T00721011 10117 20067 401721028 50004
 
KBTR - Baton Rouge, Louisiana, USA
Distance from station: S 74mi, 120km
Updated: Wed, 13-Dec-2017 11:53pm CST
Clear
Clear
 Wind from SW
Wind: SW 6 mph , 9 km/h
Temperature: 48°F , 9°C
Wind Chill: 45°F , 7°C
Dew Point: 43°F , 6°C
Humidity: 82%
Barometer: 29.98 inHg , 1015.2 hPa
Clouds: Clear
Visibility: 10 miles , 16 km
2017/12/14 05:53 KBTR 140553Z 23005KT 10SM CLR 09/06 A2998 RMK AO2 SLP151 T00940061 10111 20089 401611006 58006 $
KHDC - Hammond, Louisiana, USA
Distance from station: SSE 79mi, 128km
Updated: Wed, 13-Dec-2017 11:55pm CST
Clear
Clear
 Wind from calm
Wind: Calm
Temperature: 43°F , 6°C
Dew Point: 39°F , 4°C
Humidity: 87%
Barometer: 29.99 inHg , 1015.6 hPa
Clouds: Clear
Visibility: 10 miles , 16 km
2017/12/14 05:55 KHDC 140555Z AUTO 00000KT 10SM CLR 06/04 A2999 RMK AO2
 
KBXA - Bogalusa Carr F, Louisiana, USA
Distance from station: SE 81mi, 130km
Updated: Wed, 13-Dec-2017 11:35pm CST
Clear
Clear
 
Temperature: 41°F , 5°C
Dew Point: 37°F , 3°C
Humidity: 87%
Barometer: 29.99 inHg , 1015.6 hPa
Clouds: Clear
Visibility: 10 miles , 16 km
2017/12/14 05:35 KBXA 140535Z AUTO 10SM CLR 05/03 A2999 RMK AO2 T00450025
KESF - Alexandria, Louisiana, USA
Distance from station: W 83mi, 133km
Updated: Wed, 13-Dec-2017 11:53pm CST
Clear
Clear
 Wind from calm
Wind: Calm
Temperature: 37°F , 3°C
Dew Point: 37°F , 3°C
Humidity: 100%
Barometer: 29.96 inHg , 1014.6 hPa
Clouds: Clear
Visibility: 10 miles , 16 km
2017/12/14 05:53 KESF 140553Z AUTO 00000KT 10SM CLR 03/03 A2996 RMK AO2 SLP145 T00330028 10089 20028 401561033 58000 $
 
KMLU - Monroe, Louisiana, USA
Distance from station: NW 92mi, 149km
Updated: Wed, 13-Dec-2017 11:53pm CST
Clear
Clear
 Wind from S
Wind: S 5 mph , 7 km/h
Temperature: 41°F , 5°C
Wind Chill: 38°F , 3°C
Dew Point: 32°F , 0°C
Humidity: 70%
Barometer: 29.95 inHg , 1014.2 hPa
Clouds: Clear
Visibility: 10 miles , 16 km
2017/12/14 05:53 KMLU 140553Z AUTO 17004KT 10SM CLR 05/00 A2995 RMK AO2 SLP141 T00500000 10117 20050 401721022 58002
KPIB - Pine Belt Rgnl, Mississippi, USA
Distance from station: E 94mi, 150km
Updated: Wed, 13-Dec-2017 11:56pm CST
Clear
Clear
 Wind from calm
Wind: Calm
Temperature: 45°F , 7°C
Dew Point: 37°F , 3°C
Humidity: 76%
Barometer: 29.98 inHg , 1015.2 hPa
Clouds: Clear
Visibility: 10 miles , 16 km
2017/12/14 05:56 KPIB 140556Z AUTO 00000KT 10SM CLR 07/03 A2998 RMK AO2 SLP155 T00670028 10083 20050 401441039 51002
 
KL38 - Gonzales, Louisiana, USA
Distance from station: S 98mi, 158km
Updated: Fri, 03-Mar-2017 2:50pm CST
NOT Current
Clear
Clear
 Wind from ESE
Wind: ESE 8 mph , 13 km/h
Temperature: 70°F , 21°C
Dew Point: 30°F , -1°C
Humidity: 23%
Barometer: 30.46 inHg , 1031.5 hPa
Clouds: Clear
Visibility: 10 miles , 16 km
2017/03/03 20:50 KL38 032050Z AUTO 11007KT 10SM CLR 21/M01 A3046 RMK AO2 T02061013
KBQP - Bastrop Morehous, Louisiana, USA
Distance from station: NW 99mi, 159km
Updated: Wed, 13-Dec-2017 11:35pm CST
Clear
Clear
 Wind from SSW
Wind: SSW 5 mph , 7 km/h
Temperature: 45°F , 7°C
Wind Chill: 42°F , 6°C
Dew Point: 32°F , 0°C
Humidity: 61%
Barometer: 29.94 inHg , 1013.9 hPa
Clouds: Clear
Visibility: 10 miles , 16 km
2017/12/14 05:35 KBQP 140535Z AUTO 21004KT 10SM CLR 07/00 A2994 RMK AO2 T00701002
 
KHBG - Hattiesburg, Mississippi, USA
Distance from station: ESE 100mi, 160km
Updated: Wed, 13-Dec-2017 11:53pm CST
Clear
Clear
 Wind from calm
Wind: Calm
Temperature: 39°F , 4°C
Dew Point: 37°F , 3°C
Humidity: 93%
Barometer: 29.99 inHg , 1015.6 hPa
Clouds: Clear
Visibility: 10 miles , 16 km
2017/12/14 05:53 KHBG 140553Z AUTO 00000KT 10SM CLR 04/03 A2999 RMK AO2 SLP154 T00440028 10094 20039 401441022 58001
KAEX - Alexandria, Louisiana, USA
Distance from station: W 100mi, 161km
Updated: Wed, 13-Dec-2017 11:53pm CST
Clear
Clear
 Wind from S
Wind: S 3 mph , 6 km/h
Temperature: 45°F , 7°C
Dew Point: 36°F , 2°C
Humidity: 71%
Barometer: 29.94 inHg , 1013.9 hPa
Clouds: Clear
Visibility: 10 miles , 16 km
2017/12/14 05:53 KAEX 140553Z 18003KT 10SM CLR 07/02 A2994 RMK AO2 SLP145 T00670022 10089 20056 401501017 58004 $
 
KOPL - Opelousas, Louisiana, USA
Distance from station: SW 101mi, 162km
Updated: Wed, 13-Dec-2017 11:35pm CST
Clear
Clear
 Wind from SW
Wind: SW 3 mph , 6 km/h
Temperature: 46°F , 8°C
Dew Point: 43°F , 6°C
Humidity: 87%
Barometer: 29.98 inHg , 1015.2 hPa
Clouds: Clear
Visibility: 10 miles , 16 km
2017/12/14 05:35 KOPL 140535Z AUTO 23003KT 10SM CLR 08/06 A2998 RMK AO2 T00800059
KASD - Slidell 22, Louisiana, USA
Distance from station: SE 107mi, 172km
Updated: Wed, 13-Dec-2017 11:53pm CST
Clear
Clear
 Wind from calm
Wind: Calm
Temperature: 43°F , 6°C
Dew Point: 39°F , 4°C
Humidity: 87%
Barometer: 29.99 inHg , 1015.6 hPa
Clouds: Clear
Visibility: 10 miles , 16 km
2017/12/14 05:53 KASD 140553Z AUTO 00000KT 10SM CLR 06/04 A2999 RMK AO2 SLP155 T00610039 10100 20061 401501017 58006